Time;durP1;ratioP1;P1;durP2;ratioP2;P2;SDS_P1;SDS_P2;PMS_P1;PMS_P2;Temp;Humidity;BMP_temperature;BMP_pressure;BME280_temperature;BME280_humidity;BME280_pressure;Samples;Min_cycle;Max_cycle;Signal;HPM_P1;HPM_P2
2022/05/09 00:00:15;;;;;;;3.20;2.00;;;14.90;88.20;;;;;;4154972;28;20025;-67
2022/05/09 00:02:16;;;;;;;4.20;1.73;;;14.90;87.80;;;;;;4153163;28;20053;-67
2022/05/09 00:04:16;;;;;;;4.05;1.83;;;14.90;88.00;;;;;;4152447;28;20078;-67
2022/05/09 00:06:17;;;;;;;7.72;2.65;;;14.80;87.80;;;;;;4157136;28;20044;-67
2022/05/09 00:08:18;;;;;;;5.22;1.85;;;14.80;87.90;;;;;;4157869;28;20677;-67
2022/05/09 00:10:21;;;;;;;4.68;2.10;;;14.80;88.50;;;;;;4155722;28;20049;-67
2022/05/09 00:12:22;;;;;;;3.92;2.17;;;14.80;88.70;;;;;;4155664;28;20052;-67
2022/05/09 00:14:23;;;;;;;4.47;2.00;;;14.80;88.30;;;;;;4153638;28;20030;-67
2022/05/09 00:16:24;;;;;;;6.18;2.25;;;14.80;88.10;;;;;;4151886;28;20033;-67
2022/05/09 00:18:24;;;;;;;6.00;2.30;;;14.70;88.10;;;;;;4155565;28;20038;-67
2022/05/09 00:20:25;;;;;;;6.45;2.10;;;14.70;88.30;;;;;;4154403;28;20053;-67
2022/05/09 00:22:25;;;;;;;4.38;2.10;;;14.60;88.50;;;;;;4155883;28;20087;-67
2022/05/09 00:24:26;;;;;;;5.13;2.35;;;14.60;88.50;;;;;;4154485;28;20026;-67
2022/05/09 00:26:33;;;;;;;4.53;2.30;;;14.60;88.90;;;;;;4153440;28;20044;-67
2022/05/09 00:28:34;;;;;;;5.13;2.05;;;14.60;89.70;;;;;;4153748;28;20030;-67
2022/05/09 00:30:35;;;;;;;4.47;1.90;;;14.50;89.80;;;;;;4154772;28;20424;-67
2022/05/09 00:32:36;;;;;;;5.07;1.73;;;14.50;89.70;;;;;;4161067;28;20037;-67
2022/05/09 00:34:37;;;;;;;4.88;2.10;;;14.50;89.50;;;;;;4157289;28;20116;-67
2022/05/09 00:36:38;;;;;;;2.75;1.80;;;14.40;89.60;;;;;;4156582;28;20030;-67
2022/05/09 00:38:39;;;;;;;6.13;1.90;;;14.40;90.00;;;;;;4161814;28;20041;-67
2022/05/09 00:41:28;;;;;;;4.80;1.92;;;14.40;90.10;;;;;;4158241;28;20041;-67
2022/05/09 00:43:02;;;;;;;7.60;2.20;;;14.30;90.30;;;;;;4158265;28;20034;-67
2022/05/09 00:45:03;;;;;;;4.40;2.35;;;14.30;90.30;;;;;;4154275;28;20061;-68
2022/05/09 00:47:04;;;;;;;3.97;2.20;;;14.30;90.30;;;;;;4156235;28;20034;-67
2022/05/09 00:49:28;;;;;;;6.05;2.20;;;14.20;90.20;;;;;;4160798;28;20029;-67
2022/05/09 00:51:30;;;;;;;4.60;2.13;;;14.10;90.30;;;;;;4152966;28;20033;-67
2022/05/09 00:53:33;;;;;;;5.37;2.00;;;14.20;90.20;;;;;;4158236;28;20047;-68
2022/05/09 00:55:41;;;;;;;5.20;2.47;;;14.10;90.40;;;;;;4157977;28;20049;-67
2022/05/09 00:57:51;;;;;;;7.25;2.20;;;14.10;90.50;;;;;;4160012;28;20021;-67
2022/05/09 00:59:55;;;;;;;5.93;2.17;;;14.10;90.50;;;;;;4157487;28;20444;-67
2022/05/09 01:01:57;;;;;;;7.05;2.35;;;14.00;90.50;;;;;;4157785;28;20042;-67
2022/05/09 01:04:13;;;;;;;5.47;1.95;;;14.00;90.70;;;;;;4159785;28;20110;-67
2022/05/09 01:06:14;;;;;;;3.50;1.85;;;14.00;90.70;;;;;;4158145;28;20517;-67
2022/05/09 01:08:14;;;;;;;8.40;2.67;;;13.90;90.70;;;;;;4157222;28;20029;-67
2022/05/09 01:10:16;;;;;;;5.93;1.95;;;13.90;91.00;;;;;;4160033;28;20037;-67
2022/05/09 01:12:22;;;;;;;11.97;3.10;;;13.90;91.30;;;;;;4157571;28;20516;-67
2022/05/09 01:14:28;;;;;;;4.57;2.20;;;13.90;90.80;;;;;;4161456;28;20034;-67
2022/05/09 01:16:30;;;;;;;6.32;2.28;;;13.90;90.90;;;;;;4157996;28;20384;-66
2022/05/09 01:18:31;;;;;;;8.75;2.13;;;13.80;90.80;;;;;;4159964;28;20033;-67
2022/05/09 01:20:33;;;;;;;6.10;2.33;;;13.80;90.60;;;;;;4158754;28;20528;-67
2022/05/09 01:22:35;;;;;;;7.22;2.45;;;13.80;90.80;;;;;;4157687;28;20554;-67
2022/05/09 01:24:36;;;;;;;4.05;2.50;;;13.80;90.70;;;;;;4160790;28;20033;-67
2022/05/09 01:26:36;;;;;;;6.70;2.45;;;13.80;90.80;;;;;;4159005;28;20033;-67
2022/05/09 01:28:37;;;;;;;7.22;2.53;;;13.80;91.20;;;;;;4157662;28;20109;-67
2022/05/09 01:30:49;;;;;;;3.70;2.22;;;13.80;91.00;;;;;;4159009;28;20408;-67
2022/05/09 01:33:00;;;;;;;6.88;2.65;;;13.70;91.10;;;;;;4158633;28;20032;-67
2022/05/09 01:35:07;;;;;;;5.38;1.95;;;13.70;91.00;;;;;;4158613;28;20525;-67
2022/05/09 01:37:09;;;;;;;7.30;2.45;;;13.70;91.00;;;;;;4158563;28;20044;-67
2022/05/09 01:39:12;;;;;;;5.80;2.20;;;13.70;91.00;;;;;;4159589;28;20049;-67
2022/05/09 01:41:13;;;;;;;4.30;2.20;;;13.70;90.90;;;;;;4155652;28;20494;-67
2022/05/09 01:43:14;;;;;;;8.35;2.25;;;13.70;90.80;;;;;;4158999;28;20037;-67
2022/05/09 01:45:15;;;;;;;4.30;1.92;;;13.70;91.20;;;;;;4158557;28;20578;-67
2022/05/09 01:49:35;;;;;;;5.80;2.38;;;13.70;90.90;;;;;;4160076;28;20366;-66
2022/05/09 01:51:38;;;;;;;5.47;2.10;;;13.70;91.10;;;;;;4159446;28;20051;-67
2022/05/09 01:53:39;;;;;;;4.25;2.25;;;13.70;91.00;;;;;;4157891;28;20508;-67
2022/05/09 01:55:41;;;;;;;6.00;2.40;;;13.70;91.20;;;;;;4157196;28;20088;-67
2022/05/09 01:57:41;;;;;;;6.18;2.38;;;13.70;91.20;;;;;;4158003;28;20037;-67
2022/05/09 01:59:43;;;;;;;8.07;2.40;;;13.70;91.50;;;;;;4157338;28;20084;-67
2022/05/09 02:01:48;;;;;;;6.38;2.45;;;13.60;91.10;;;;;;4159562;28;20037;-67
2022/05/09 02:03:49;;;;;;;4.03;2.42;;;13.60;91.60;;;;;;4155634;28;20045;-67
2022/05/09 02:05:50;;;;;;;5.37;2.53;;;13.60;91.20;;;;;;4159600;28;20040;-67
2022/05/09 02:07:51;;;;;;;5.22;2.60;;;13.60;91.30;;;;;;4160800;28;20041;-67
2022/05/09 02:09:51;;;;;;;5.50;2.35;;;13.60;91.20;;;;;;4160414;28;20496;-67
2022/05/09 02:11:52;;;;;;;6.18;2.50;;;13.60;91.40;;;;;;4159416;28;20044;-67
2022/05/09 02:13:53;;;;;;;6.18;2.20;;;13.50;91.10;;;;;;4157269;28;20025;-66
2022/05/09 02:15:54;;;;;;;4.60;2.20;;;13.60;91.30;;;;;;4156108;28;20048;-67
2022/05/09 02:17:54;;;;;;;5.55;2.38;;;13.50;91.30;;;;;;4159641;28;20038;-67
2022/05/09 02:19:55;;;;;;;7.70;2.88;;;13.50;91.40;;;;;;4158830;28;20500;-67
2022/05/09 02:21:56;;;;;;;7.00;2.35;;;13.50;91.20;;;;;;4158358;28;20116;-67
2022/05/09 02:23:57;;;;;;;6.03;2.30;;;13.50;91.20;;;;;;4157930;28;20973;-67
2022/05/09 02:25:57;;;;;;;5.22;2.30;;;13.50;91.20;;;;;;4156312;28;20387;-67
2022/05/09 02:28:00;;;;;;;5.20;2.55;;;13.50;91.30;;;;;;4159171;28;20038;-67
2022/05/09 02:30:03;;;;;;;4.25;2.13;;;13.50;91.40;;;;;;4160926;28;20080;-67
2022/05/09 02:32:05;;;;;;;4.45;2.13;;;13.50;91.40;;;;;;4160640;28;20072;-67
2022/05/09 02:34:06;;;;;;;7.13;2.35;;;13.50;91.20;;;;;;4156011;28;20056;-67
2022/05/09 02:36:06;;;;;;;4.85;2.50;;;13.50;91.40;;;;;;4157333;28;20053;-67
2022/05/09 02:38:07;;;;;;;6.15;2.60;;;13.40;91.40;;;;;;4158585;28;20938;-66
2022/05/09 02:40:08;;;;;;;7.65;2.85;;;13.40;91.30;;;;;;4160157;28;20037;-68
2022/05/09 02:42:09;;;;;;;5.63;2.40;;;13.40;91.30;;;;;;4158271;28;20380;-67
2022/05/09 02:44:09;;;;;;;6.78;2.55;;;13.40;91.50;;;;;;4157578;28;20033;-67
2022/05/09 02:46:11;;;;;;;6.57;2.10;;;13.40;91.40;;;;;;4149427;28;20042;-66
2022/05/09 02:48:12;;;;;;;3.67;2.20;;;13.30;91.30;;;;;;4159487;28;20112;-67
2022/05/09 02:50:14;;;;;;;6.88;2.40;;;13.40;91.40;;;;;;4154455;28;20025;-67
2022/05/09 02:52:15;;;;;;;6.18;2.83;;;13.30;91.60;;;;;;4157133;28;20131;-68
2022/05/09 02:54:16;;;;;;;5.10;2.50;;;13.30;91.50;;;;;;4155280;28;20034;-67
2022/05/09 02:56:16;;;;;;;4.30;2.28;;;13.30;91.40;;;;;;4158937;28;20041;-67
2022/05/09 02:58:17;;;;;;;5.20;2.47;;;13.30;91.70;;;;;;4157653;28;20041;-67
2022/05/09 03:00:21;;;;;;;6.75;2.88;;;13.30;91.50;;;;;;4155010;28;20068;-67
2022/05/09 03:02:21;;;;;;;4.47;2.33;;;13.30;92.00;;;;;;4159678;28;20465;-67
2022/05/09 03:04:41;;;;;;;4.40;2.35;;;13.30;91.90;;;;;;4159834;28;20047;-67
2022/05/09 03:06:41;;;;;;;5.20;2.70;;;13.20;91.80;;;;;;4156571;28;20025;-67
2022/05/09 03:08:42;;;;;;;4.88;2.35;;;13.20;91.70;;;;;;4156011;28;20129;-67
2022/05/09 03:10:43;;;;;;;5.75;2.60;;;13.20;91.80;;;;;;4155958;28;20033;-67
2022/05/09 03:12:44;;;;;;;6.57;2.47;;;13.20;91.80;;;;;;4155882;28;20120;-68
2022/05/09 03:14:45;;;;;;;4.38;2.45;;;13.20;91.40;;;;;;4155588;28;20030;-67
2022/05/09 03:16:45;;;;;;;5.88;2.70;;;13.20;91.50;;;;;;4154120;28;20026;-67
2022/05/09 03:18:47;;;;;;;6.15;2.75;;;13.20;91.70;;;;;;4159380;28;20385;-67
2022/05/09 03:20:48;;;;;;;4.15;2.40;;;13.10;91.60;;;;;;4158249;28;20044;-67
2022/05/09 03:22:49;;;;;;;6.60;2.65;;;13.00;91.70;;;;;;4157087;28;20120;-67
2022/05/09 03:24:49;;;;;;;6.60;2.60;;;13.00;92.00;;;;;;4153731;28;20117;-67
2022/05/09 03:26:50;;;;;;;6.55;2.72;;;13.00;92.10;;;;;;4150925;28;20042;-66
2022/05/09 03:28:51;;;;;;;7.75;2.67;;;13.00;92.10;;;;;;4150064;28;20034;-66
2022/05/09 03:30:53;;;;;;;6.03;2.60;;;13.10;92.30;;;;;;4153590;28;20403;-67
2022/05/09 03:32:54;;;;;;;6.63;2.42;;;13.10;92.20;;;;;;4157529;28;20480;-67
2022/05/09 03:34:54;;;;;;;5.35;2.35;;;13.10;92.10;;;;;;4153981;28;20040;-67
2022/05/09 03:36:55;;;;;;;5.70;2.50;;;13.10;92.30;;;;;;4149078;28;20029;-67
2022/05/09 03:38:57;;;;;;;5.97;2.42;;;13.10;92.30;;;;;;4154641;28;20038;-67
2022/05/09 03:40:58;;;;;;;7.65;2.38;;;13.10;92.00;;;;;;4150338;28;20041;-66
2022/05/09 03:42:59;;;;;;;4.55;2.42;;;13.10;92.00;;;;;;4153660;28;20389;-67
2022/05/09 03:45:01;;;;;;;6.60;2.63;;;13.10;92.00;;;;;;4157400;28;20481;-66
2022/05/09 03:47:02;;;;;;;6.38;2.60;;;13.10;92.30;;;;;;4155602;28;20056;-67
2022/05/09 03:49:04;;;;;;;9.00;2.92;;;13.20;92.50;;;;;;4150403;28;20558;-67
2022/05/09 03:51:04;;;;;;;4.00;2.23;;;13.10;92.80;;;;;;4154025;28;20037;-67
2022/05/09 03:53:05;;;;;;;8.38;2.50;;;13.20;92.60;;;;;;4152848;28;20061;-67
2022/05/09 03:55:06;;;;;;;5.28;2.53;;;13.20;92.40;;;;;;4153471;28;20037;-67
2022/05/09 03:57:07;;;;;;;7.78;3.15;;;13.20;92.50;;;;;;4156078;28;20029;-67
2022/05/09 03:59:08;;;;;;;4.28;2.20;;;13.20;92.20;;;;;;4158668;28;20144;-67
2022/05/09 04:01:11;;;;;;;5.57;2.10;;;13.20;92.20;;;;;;4151316;28;20045;-67
2022/05/09 04:03:12;;;;;;;5.57;2.85;;;13.20;92.50;;;;;;4153590;28;20595;-67
2022/05/09 04:05:17;;;;;;;7.10;2.72;;;13.20;92.40;;;;;;4151036;28;20292;-67
2022/05/09 04:07:19;;;;;;;7.47;3.15;;;13.20;92.30;;;;;;4152240;28;20040;-67
2022/05/09 04:09:20;;;;;;;6.25;2.45;;;13.30;92.20;;;;;;4156993;28;20045;-66
2022/05/09 04:11:21;;;;;;;6.05;2.67;;;13.30;92.30;;;;;;4153979;28;20111;-67
2022/05/09 04:13:22;;;;;;;6.45;2.92;;;13.30;92.30;;;;;;4156077;28;20091;-67
2022/05/09 04:17:42;;;;;;;5.13;2.33;;;13.20;92.10;;;;;;4154607;28;20504;-67
2022/05/09 04:19:44;;;;;;;7.63;3.03;;;13.20;92.00;;;;;;4157319;28;20040;-67
2022/05/09 04:21:45;;;;;;;5.38;2.55;;;13.20;92.00;;;;;;4152802;28;20037;-67
2022/05/09 04:23:46;;;;;;;8.82;2.80;;;13.10;91.90;;;;;;4156651;28;20903;-67
2022/05/09 04:25:48;;;;;;;6.50;2.80;;;13.00;92.30;;;;;;4160365;28;20032;-67
2022/05/09 04:27:49;;;;;;;4.32;2.35;;;12.90;92.40;;;;;;4160827;28;20053;-67
2022/05/09 04:29:51;;;;;;;4.28;2.38;;;12.90;92.70;;;;;;4157804;28;20530;-67
2022/05/09 04:31:52;;;;;;;6.80;2.50;;;12.90;93.20;;;;;;4159343;28;20029;-66
2022/05/09 04:33:54;;;;;;;7.65;2.85;;;12.80;93.10;;;;;;4161397;28;20120;-66
2022/05/09 04:35:54;;;;;;;7.22;2.97;;;12.80;93.00;;;;;;4155950;28;20584;-67
2022/05/09 04:37:55;;;;;;;5.03;2.30;;;12.90;93.20;;;;;;4158343;28;20045;-66
2022/05/09 04:39:58;;;;;;;6.07;2.42;;;12.90;93.10;;;;;;4161156;28;20048;-67
2022/05/09 04:41:59;;;;;;;5.53;2.75;;;12.90;93.20;;;;;;4154399;28;20506;-67
2022/05/09 04:44:03;;;;;;;6.90;2.80;;;12.90;93.30;;;;;;4154220;28;20037;-67
2022/05/09 04:46:05;;;;;;;5.13;3.03;;;12.90;93.40;;;;;;4154205;28;20029;-67
2022/05/09 04:48:05;;;;;;;5.88;2.78;;;13.00;93.30;;;;;;4152730;28;20061;-67
2022/05/09 04:50:08;;;;;;;7.43;2.67;;;13.00;93.40;;;;;;4157382;28;20037;-67
2022/05/09 04:52:09;;;;;;;7.20;2.97;;;13.00;93.60;;;;;;4157766;28;20465;-67
2022/05/09 04:54:09;;;;;;;5.28;2.80;;;13.00;93.70;;;;;;4158389;28;20037;-67
2022/05/09 04:56:10;;;;;;;9.07;2.95;;;13.10;93.90;;;;;;4155427;28;20068;-67
2022/05/09 04:58:14;;;;;;;7.70;3.03;;;13.10;94.00;;;;;;4154427;28;20038;-67
2022/05/09 05:00:21;;;;;;;7.45;2.72;;;13.10;94.10;;;;;;4157068;28;20583;-67
2022/05/09 05:02:22;;;;;;;8.10;2.47;;;13.10;94.00;;;;;;4157397;28;20038;-67
2022/05/09 05:04:23;;;;;;;7.50;2.80;;;13.20;94.10;;;;;;4158916;28;20496;-67
2022/05/09 05:06:23;;;;;;;6.53;2.85;;;13.20;94.00;;;;;;4157673;28;20041;-67
2022/05/09 05:08:24;;;;;;;5.18;2.80;;;13.30;94.00;;;;;;4156558;28;20041;-67
2022/05/09 05:10:26;;;;;;;6.97;2.92;;;13.30;93.90;;;;;;4151454;28;20072;-67
2022/05/09 05:12:27;;;;;;;6.72;2.85;;;13.40;94.00;;;;;;4155641;28;20040;-67
2022/05/09 05:14:27;;;;;;;4.65;2.80;;;13.40;94.00;;;;;;4156351;28;20120;-67
2022/05/09 05:18:47;;;;;;;5.72;3.17;;;13.40;94.30;;;;;;4155126;28;20071;-67
2022/05/09 05:20:48;;;;;;;4.03;2.33;;;13.50;94.50;;;;;;4159950;28;20033;-67
2022/05/09 05:22:49;;;;;;;6.10;2.88;;;13.50;94.40;;;;;;4158759;28;20449;-67
2022/05/09 05:24:53;;;;;;;7.88;3.13;;;13.50;94.40;;;;;;4159490;28;20573;-67
2022/05/09 05:26:55;;;;;;;8.60;3.40;;;13.50;94.90;;;;;;4158478;28;20029;-67
2022/05/09 05:28:55;;;;;;;8.48;3.17;;;13.60;94.90;;;;;;4153769;28;20030;-67
2022/05/09 05:31:09;;;;;;;5.50;2.88;;;13.50;94.10;;;;;;4155980;28;20033;-67
2022/05/09 05:33:10;;;;;;;5.07;3.03;;;13.50;94.00;;;;;;4158965;28;20514;-67
2022/05/09 05:35:14;;;;;;;6.50;3.03;;;13.50;94.20;;;;;;4157626;28;20061;-68
2022/05/09 05:37:16;;;;;;;9.20;3.70;;;13.50;94.60;;;;;;4157923;28;20408;-67
2022/05/09 05:39:18;;;;;;;9.10;3.73;;;13.40;93.70;;;;;;4156511;28;20195;-67
2022/05/09 05:41:19;;;;;;;7.07;3.60;;;13.20;94.20;;;;;;4158013;28;20061;-68
2022/05/09 05:43:19;;;;;;;6.45;3.50;;;13.20;94.50;;;;;;4155335;28;20041;-68
2022/05/09 05:45:22;;;;;;;8.40;3.30;;;13.10;94.70;;;;;;4157068;28;20040;-67
2022/05/09 05:47:23;;;;;;;8.13;3.60;;;13.10;94.60;;;;;;4156707;28;20037;-67
2022/05/09 05:49:24;;;;;;;8.05;4.00;;;13.10;94.90;;;;;;4159422;28;20053;-67
2022/05/09 05:51:24;;;;;;;10.57;3.80;;;13.20;95.10;;;;;;4156995;28;20041;-67
2022/05/09 05:53:25;;;;;;;10.50;4.00;;;13.20;95.80;;;;;;4154771;28;20095;-67
2022/05/09 05:55:26;;;;;;;8.63;3.97;;;13.20;95.00;;;;;;4157065;28;20054;-67
2022/05/09 05:57:29;;;;;;;12.20;4.43;;;13.20;94.90;;;;;;4155353;28;20034;-67
2022/05/09 05:59:30;;;;;;;8.82;3.95;;;13.20;94.80;;;;;;4154544;28;20068;-67
2022/05/09 06:01:33;;;;;;;11.65;4.65;;;13.20;95.10;;;;;;4158597;28;20534;-67
2022/05/09 06:03:34;;;;;;;8.32;3.63;;;13.20;94.90;;;;;;4157870;28;20863;-67
2022/05/09 06:05:35;;;;;;;8.25;3.85;;;13.20;94.90;;;;;;4157036;28;20037;-67
2022/05/09 06:07:37;;;;;;;7.45;3.67;;;13.30;95.80;;;;;;4155160;28;21690;-68
2022/05/09 06:09:38;;;;;;;7.85;4.10;;;13.40;95.60;;;;;;4153918;28;20042;-67
2022/05/09 06:11:40;;;;;;;10.35;4.03;;;13.50;95.30;;;;;;4156212;28;20737;-67
2022/05/09 06:13:41;;;;;;;12.68;4.35;;;13.60;95.80;;;;;;4156916;28;20142;-67
2022/05/09 06:15:42;;;;;;;18.33;5.30;;;13.70;96.00;;;;;;4156566;28;20152;-67
2022/05/09 06:17:42;;;;;;;7.97;3.92;;;13.80;95.20;;;;;;4156848;28;20041;-67
2022/05/09 06:19:44;;;;;;;8.70;3.85;;;14.10;95.80;;;;;;4158377;28;20029;-68
2022/05/09 06:21:45;;;;;;;12.52;4.03;;;14.50;97.10;;;;;;4157627;28;20068;-67
2022/05/09 06:23:45;;;;;;;8.05;3.55;;;15.00;95.60;;;;;;4156480;28;20471;-67
2022/05/09 06:25:48;;;;;;;6.75;3.50;;;15.50;95.30;;;;;;4156115;28;20449;-68
2022/05/09 06:27:49;;;;;;;9.68;3.78;;;15.90;95.40;;;;;;4156379;28;20079;-68
2022/05/09 06:29:49;;;;;;;9.93;3.75;;;16.40;93.10;;;;;;4156631;28;20045;-68
2022/05/09 06:31:50;;;;;;;8.43;4.03;;;16.90;93.20;;;;;;4154244;28;20034;-68
2022/05/09 06:33:51;;;;;;;11.32;3.92;;;17.40;93.10;;;;;;4157102;28;20113;-68
2022/05/09 06:35:53;;;;;;;11.05;4.20;;;17.90;92.60;;;;;;4156180;28;21197;-68
2022/05/09 06:38:03;;;;;;;8.45;3.70;;;18.40;91.50;;;;;;4154614;28;20044;-68
2022/05/09 06:40:05;;;;;;;11.30;4.30;;;18.80;87.50;;;;;;4157260;28;20041;-70
2022/05/09 06:42:07;;;;;;;;;;;18.90;82.50;;;;;;4155488;28;20045;-69
2022/05/09 06:44:09;;;;;;;8.38;3.60;;;19.20;83.70;;;;;;4151633;28;19929;-68
2022/05/09 06:46:10;;;;;;;10.55;3.92;;;19.50;86.50;;;;;;4155444;28;20507;-69
2022/05/09 06:48:11;;;;;;;6.70;3.15;;;19.70;82.20;;;;;;4152254;28;20033;-69
2022/05/09 06:50:12;;;;;;;8.48;3.53;;;20.00;82.60;;;;;;4147484;28;20489;-68
2022/05/09 06:52:13;;;;;;;9.98;4.28;;;20.30;81.20;;;;;;4154533;28;20045;-69
2022/05/09 06:54:16;;;;;;;10.82;3.90;;;20.60;79.30;;;;;;4155732;28;20524;-69
2022/05/09 06:56:17;;;;;;;8.18;3.95;;;20.80;80.20;;;;;;4151463;28;20050;-70
2022/05/09 06:58:21;;;;;;;14.60;5.13;;;21.00;79.60;;;;;;4155904;28;20088;-69
2022/05/09 07:00:24;;;;;;;12.73;4.50;;;21.10;75.80;;;;;;4155621;28;20038;-69
2022/05/09 07:02:24;;;;;;;7.10;3.53;;;21.30;75.00;;;;;;4155229;28;20593;-69
2022/05/09 07:04:25;;;;;;;7.57;3.65;;;21.40;75.30;;;;;;4156276;28;20509;-69
2022/05/09 07:06:25;;;;;;;10.00;4.15;;;21.50;74.90;;;;;;4153826;28;20053;-69
2022/05/09 07:08:32;;;;;;;10.48;3.88;;;21.60;74.10;;;;;;4155736;28;20049;-68
2022/05/09 07:10:32;;;;;;;11.25;4.43;;;21.70;73.40;;;;;;4153231;28;20381;-70
2022/05/09 07:12:44;;;;;;;14.00;4.45;;;21.80;74.30;;;;;;4155045;28;20044;-68
2022/05/09 07:14:45;;;;;;;10.98;5.25;;;21.90;72.50;;;;;;4157118;28;20033;-68
2022/05/09 07:16:46;;;;;;;13.05;5.47;;;21.90;73.00;;;;;;4156701;28;20032;-68
2022/05/09 07:18:47;;;;;;;10.38;5.05;;;21.90;72.60;;;;;;4155677;28;20029;-68
2022/05/09 07:20:47;;;;;;;12.88;5.47;;;21.80;73.90;;;;;;4155707;28;20044;-68
2022/05/09 07:22:50;;;;;;;10.80;4.88;;;21.70;72.80;;;;;;4154893;28;20384;-69
2022/05/09 07:24:51;;;;;;;13.88;5.28;;;21.60;74.90;;;;;;4156095;28;20022;-68
2022/05/09 07:26:51;;;;;;;11.80;4.85;;;21.50;74.90;;;;;;4153731;28;20021;-68
2022/05/09 07:28:52;;;;;;;10.35;4.90;;;21.60;73.30;;;;;;4155222;28;20147;-68
2022/05/09 07:30:53;;;;;;;16.17;5.00;;;21.60;73.00;;;;;;4153330;28;20125;-68
2022/05/09 07:32:53;;;;;;;13.15;4.40;;;21.60;72.70;;;;;;4156385;28;20056;-68
2022/05/09 07:34:54;;;;;;;10.70;4.72;;;21.60;74.80;;;;;;4150612;28;20044;-68
2022/05/09 07:36:54;;;;;;;10.32;4.18;;;21.60;72.90;;;;;;4153967;28;20087;-68
2022/05/09 07:38:55;;;;;;;9.32;3.42;;;21.60;71.90;;;;;;4156882;28;20044;-68
2022/05/09 07:40:56;;;;;;;8.68;3.78;;;21.70;73.00;;;;;;4154714;28;20848;-68
2022/05/09 07:42:58;;;;;;;10.40;4.35;;;21.70;73.50;;;;;;4154632;28;20064;-68
2022/05/09 07:44:59;;;;;;;;;;;21.60;73.00;;;;;;4157575;28;20064;-68
2022/05/09 07:46:59;;;;;;;7.68;3.70;;;21.60;73.80;;;;;;4155654;28;19966;-68
2022/05/09 07:49:00;;;;;;;9.23;3.92;;;21.60;72.80;;;;;;4155754;28;20116;-68
2022/05/09 07:51:01;;;;;;;9.45;3.78;;;21.60;73.70;;;;;;4155628;28;20042;-68
2022/05/09 07:53:11;;;;;;;9.13;3.88;;;21.50;74.00;;;;;;4154843;28;20507;-68
2022/05/09 07:55:15;;;;;;;10.32;3.20;;;21.50;73.90;;;;;;4154392;28;20102;-68
2022/05/09 07:57:16;;;;;;;11.10;4.18;;;21.40;73.30;;;;;;4157149;28;20038;-68
2022/05/09 07:59:17;;;;;;;11.95;3.95;;;21.30;73.80;;;;;;4155344;28;20038;-68
2022/05/09 08:01:18;;;;;;;8.65;4.00;;;21.30;73.50;;;;;;4153988;28;20099;-69
2022/05/09 08:03:21;;;;;;;9.40;3.28;;;21.30;74.20;;;;;;4156078;28;20512;-69
2022/05/09 08:05:22;;;;;;;8.07;3.08;;;21.30;74.00;;;;;;4152779;28;20095;-69
2022/05/09 08:07:23;;;;;;;9.02;3.30;;;21.20;74.20;;;;;;4155691;28;20548;-68
2022/05/09 08:09:23;;;;;;;5.32;2.72;;;21.30;74.60;;;;;;4155517;28;20054;-68
2022/05/09 08:11:25;;;;;;;5.30;2.78;;;21.30;75.30;;;;;;4153172;28;20048;-69
2022/05/09 08:13:29;;;;;;;10.25;3.20;;;21.30;76.20;;;;;;4154997;28;20808;-69
2022/05/09 08:15:31;;;;;;;9.57;2.75;;;21.30;75.60;;;;;;4154109;28;20108;-68
2022/05/09 08:17:32;;;;;;;6.00;2.70;;;21.30;76.10;;;;;;4155078;28;20128;-68
2022/05/09 08:19:32;;;;;;;8.27;2.78;;;21.30;76.20;;;;;;4154495;28;21066;-68
2022/05/09 08:21:33;;;;;;;8.60;3.00;;;21.40;76.10;;;;;;4152935;28;20397;-68
2022/05/09 08:23:35;;;;;;;7.45;2.80;;;21.50;77.40;;;;;;4170577;28;20385;-69
2022/05/09 08:25:37;;;;;;;8.15;3.25;;;21.60;77.50;;;;;;4155399;28;20033;-68
2022/05/09 08:27:38;;;;;;;11.15;3.65;;;21.60;76.40;;;;;;4155033;28;20104;-69
2022/05/09 08:29:39;;;;;;;6.55;2.95;;;21.70;76.10;;;;;;4154198;28;20030;-69
2022/05/09 08:31:39;;;;;;;9.32;2.80;;;21.80;76.70;;;;;;4154693;28;20037;-69
2022/05/09 08:33:40;;;;;;;6.93;2.72;;;21.80;75.50;;;;;;4155706;28;20513;-69
2022/05/09 08:35:43;;;;;;;3.72;1.83;;;21.80;74.20;;;;;;4152798;28;20124;-69
2022/05/09 08:37:43;;;;;;;7.88;2.50;;;21.90;76.20;;;;;;4154587;28;20042;-68
2022/05/09 08:39:45;;;;;;;5.75;2.22;;;21.90;75.60;;;;;;4154997;28;20042;-69
2022/05/09 08:42:04;;;;;;;5.20;2.42;;;21.90;75.40;;;;;;4154688;28;20408;-68
2022/05/09 08:44:27;;;;;;;6.75;2.85;;;21.80;75.00;;;;;;4155891;28;20041;-68
2022/05/09 08:47:00;;;;;;;5.83;2.50;;;21.80;75.10;;;;;;4154669;28;20508;-68
2022/05/09 08:49:19;;;;;;;;;;;21.60;75.00;;;;;;4155516;28;20041;-68
2022/05/09 08:51:40;;;;;;;6.80;2.47;;;21.70;76.20;;;;;;4154018;28;19987;-67
2022/05/09 08:53:43;;;;;;;6.93;2.28;;;21.70;77.00;;;;;;4156691;28;20037;-67
2022/05/09 08:55:45;;;;;;;4.35;1.90;;;21.70;77.20;;;;;;4151286;28;20034;-67
2022/05/09 08:57:52;;;;;;;8.97;2.30;;;21.70;77.90;;;;;;4158054;28;20044;-67
2022/05/09 09:00:03;;;;;;;4.53;2.38;;;21.90;77.30;;;;;;4157840;28;20046;-67
2022/05/09 09:02:19;;;;;;;7.88;2.67;;;21.90;77.20;;;;;;4159406;28;20121;-67
2022/05/09 09:04:26;;;;;;;6.53;2.83;;;21.90;76.90;;;;;;4156255;28;20037;-68
2022/05/09 09:06:41;;;;;;;4.53;2.33;;;21.90;77.00;;;;;;4154168;28;21020;-67
2022/05/09 09:09:16;;;;;;;5.55;2.28;;;22.00;76.90;;;;;;4157598;28;20117;-67
2022/05/09 09:11:28;;;;;;;4.53;2.00;;;21.90;76.40;;;;;;4155144;28;20388;-67
2022/05/09 09:13:43;;;;;;;6.63;2.28;;;22.00;76.70;;;;;;4156366;28;20042;-67
2022/05/09 09:16:15;;;;;;;4.47;2.28;;;22.10;78.50;;;;;;4155270;28;20038;-67
2022/05/09 09:18:36;;;;;;;4.82;1.90;;;22.20;79.10;;;;;;4156451;28;20496;-67
2022/05/09 09:20:47;;;;;;;4.30;2.05;;;22.30;78.30;;;;;;4154841;28;20037;-67
2022/05/09 09:23:17;;;;;;;6.38;2.38;;;22.40;77.70;;;;;;4155315;28;20056;-67
2022/05/09 09:25:46;;;;;;;4.88;2.35;;;22.40;76.70;;;;;;4154364;28;20038;-67
2022/05/09 09:27:53;;;;;;;5.45;2.05;;;22.50;76.90;;;;;;4152299;28;20128;-66
2022/05/09 09:29:59;;;;;;;5.25;2.75;;;22.50;76.70;;;;;;4154422;28;20048;-67
2022/05/09 09:32:13;;;;;;;6.40;2.40;;;22.40;75.90;;;;;;4155417;28;20052;-67
2022/05/09 09:34:26;;;;;;;8.18;3.20;;;22.40;76.90;;;;;;4154988;28;20499;-67
2022/05/09 09:36:37;;;;;;;6.38;2.50;;;22.40;76.70;;;;;;4153749;28;20041;-67
2022/05/09 09:38:54;;;;;;;5.68;2.25;;;22.40;77.90;;;;;;4155287;28;20107;-68
2022/05/09 09:40:54;;;;;;;7.20;2.78;;;22.50;77.80;;;;;;4153097;28;20088;-67
2022/05/09 09:42:56;;;;;;;5.82;2.58;;;22.50;77.50;;;;;;4154841;28;20420;-67
2022/05/09 09:44:58;;;;;;;8.32;2.88;;;22.40;78.10;;;;;;4156032;28;20041;-68
2022/05/09 09:47:21;;;;;;;9.52;2.90;;;22.40;78.00;;;;;;4152444;28;20037;-68
2022/05/09 09:49:24;;;;;;;3.35;2.10;;;22.60;80.20;;;;;;4155010;28;20410;-68
2022/05/09 09:51:24;;;;;;;;;;;22.70;80.00;;;;;;4149581;28;20064;-68
2022/05/09 09:53:39;;;;;;;5.43;1.90;;;22.80;79.50;;;;;;4152925;28;20295;-68
2022/05/09 09:55:40;;;;;;;5.47;2.28;;;22.90;78.50;;;;;;4152491;28;20049;-68
2022/05/09 09:57:41;;;;;;;5.93;2.72;;;23.00;77.90;;;;;;4155741;28;20063;-68
2022/05/09 09:59:42;;;;;;;4.82;2.78;;;23.00;77.70;;;;;;4156350;28;20056;-68
2022/05/09 10:01:43;;;;;;;5.20;2.70;;;23.10;77.30;;;;;;4153815;28;20021;-68
2022/05/09 10:03:46;;;;;;;6.20;3.25;;;23.10;76.10;;;;;;4156134;28;20030;-68
2022/05/09 10:05:50;;;;;;;10.25;3.20;;;23.10;77.30;;;;;;4154707;28;20076;-68
2022/05/09 10:07:50;;;;;;;6.25;3.17;;;23.10;76.90;;;;;;4155240;28;20357;-69
2022/05/09 10:10:16;;;;;;;4.63;2.20;;;23.10;76.60;;;;;;4154809;28;20090;-68
2022/05/09 10:12:25;;;;;;;9.10;2.97;;;23.10;77.50;;;;;;4154780;28;20496;-68
2022/05/09 10:14:34;;;;;;;4.80;2.45;;;23.20;77.90;;;;;;4153316;28;20073;-68
2022/05/09 10:16:48;;;;;;;5.53;2.30;;;23.20;77.10;;;;;;4156086;28;20048;-68
2022/05/09 10:18:50;;;;;;;6.60;2.85;;;23.30;79.30;;;;;;4153283;28;20038;-68
2022/05/09 10:20:51;;;;;;;;;;;23.40;79.10;;;;;;4155749;28;20034;-68
2022/05/09 10:25:20;;;;;;;6.28;2.53;;;23.60;80.20;;;;;;4154953;28;20526;-68
2022/05/09 10:27:20;;;;;;;4.18;2.25;;;23.70;77.70;;;;;;4155528;28;20112;-68
2022/05/09 10:29:23;;;;;;;8.40;3.55;;;23.80;78.80;;;;;;4155659;28;20453;-68
2022/05/09 10:31:52;;;;;;;7.82;2.88;;;23.80;77.70;;;;;;4152714;28;20045;-68
2022/05/09 10:34:00;;;;;;;5.97;3.08;;;23.80;77.30;;;;;;4149252;28;20037;-69
2022/05/09 10:36:24;;;;;;;8.30;3.20;;;23.80;77.00;;;;;;4154765;28;20094;-68
2022/05/09 10:38:40;;;;;;;4.90;2.28;;;23.90;77.80;;;;;;4154551;28;20038;-68
2022/05/09 10:40:45;;;;;;;6.47;2.80;;;23.90;76.20;;;;;;4151163;28;20180;-69
2022/05/09 10:43:09;;;;;;;5.95;3.00;;;23.90;76.10;;;;;;4155194;28;20492;-69
2022/05/09 10:45:17;;;;;;;;;;;23.90;75.60;;;;;;4153794;28;20267;-70
2022/05/09 10:47:39;;;;;;;6.45;2.90;;;23.90;76.90;;;;;;4153009;28;19916;-68
2022/05/09 10:49:48;;;;;;;6.70;3.10;;;23.90;75.90;;;;;;4154127;28;20151;-68
2022/05/09 10:52:04;;;;;;;4.45;2.63;;;23.80;76.50;;;;;;4154049;28;20485;-68
2022/05/09 10:54:26;;;;;;;7.10;3.13;;;23.80;77.80;;;;;;4155019;28;20061;-68